createdAt,value
2016-11-29T00:00:39.350Z,4
2016-11-29T00:01:52.885Z,4
2016-11-29T00:03:05.881Z,4
2016-11-29T00:04:19.371Z,4
2016-11-29T00:05:32.862Z,4
2016-11-29T00:06:46.108Z,4
2016-11-29T00:07:59.137Z,4
2016-11-29T00:09:12.692Z,4
2016-11-29T00:10:24.853Z,4
2016-11-29T00:11:38.107Z,0
2016-11-29T00:12:51.679Z,0
2016-11-29T00:14:04.949Z,0
2016-11-29T00:15:18.478Z,0
2016-11-29T00:16:31.979Z,0
2016-11-29T00:17:44.443Z,0
2016-11-29T00:18:57.404Z,0
2016-11-29T00:20:11.356Z,0
2016-11-29T00:21:24.881Z,0
2016-11-29T00:22:38.454Z,0
2016-11-29T00:23:52.025Z,0
2016-11-29T00:25:05.064Z,0
2016-11-29T00:26:18.651Z,0
2016-11-29T00:27:32.107Z,0
2016-11-29T00:28:45.631Z,0
2016-11-29T00:29:59.156Z,0
2016-11-29T00:31:12.088Z,0
2016-11-29T00:32:25.087Z,0
2016-11-29T00:33:38.655Z,0
2016-11-29T00:34:52.257Z,0
2016-11-29T00:36:05.280Z,0
2016-11-29T00:37:18.336Z,0
2016-11-29T00:38:31.964Z,0
2016-11-29T00:39:45.487Z,0
2016-11-29T00:40:58.462Z,0
2016-11-29T00:42:12.068Z,0
2016-11-29T00:43:25.617Z,0
2016-11-29T00:44:38.626Z,0
2016-11-29T00:45:51.114Z,0
2016-11-29T00:47:05.066Z,0
2016-11-29T00:48:18.124Z,0
2016-11-29T00:49:31.993Z,0
2016-11-29T00:50:45.477Z,0
2016-11-29T00:51:58.720Z,0
2016-11-29T00:53:12.408Z,0
2016-11-29T00:54:25.478Z,0
2016-11-29T00:55:38.950Z,0
2016-11-29T00:56:52.536Z,0
2016-11-29T00:58:05.471Z,0
2016-11-29T00:59:18.529Z,0
2016-11-29T01:00:31.527Z,0
2016-11-29T01:01:44.714Z,0
2016-11-29T01:02:58.299Z,0
2016-11-29T01:04:11.809Z,0
2016-11-29T01:05:25.391Z,0
2016-11-29T01:06:38.998Z,0
2016-11-29T01:07:52.610Z,0
2016-11-29T01:09:05.688Z,0
2016-11-29T01:10:19.223Z,0
2016-11-29T01:11:32.754Z,0
2016-11-29T01:12:45.794Z,0
2016-11-29T01:13:58.835Z,0
2016-11-29T01:15:11.598Z,0
2016-11-29T01:18:08.551Z,0
2016-11-29T01:19:21.623Z,0
2016-11-29T01:20:35.236Z,0
2016-11-29T01:21:47.203Z,0
2016-11-29T01:23:00.678Z,0
2016-11-29T01:24:13.664Z,0
2016-11-29T01:25:27.201Z,0
2016-11-29T01:26:40.779Z,0
2016-11-29T01:27:54.304Z,0
2016-11-29T01:29:08.265Z,0
2016-11-29T01:30:21.409Z,0
2016-11-29T01:31:35.106Z,0
2016-11-29T01:32:48.643Z,0
2016-11-29T01:34:02.148Z,0
2016-11-29T01:35:15.697Z,0
2016-11-29T01:36:28.648Z,0
2016-11-29T01:37:42.600Z,0
2016-11-29T01:38:56.135Z,0
2016-11-29T01:40:09.697Z,0
2016-11-29T01:41:22.698Z,0
2016-11-29T01:42:36.059Z,0
2016-11-29T01:43:48.549Z,0
2016-11-29T01:45:02.045Z,0
2016-11-29T01:46:15.564Z,0
2016-11-29T01:47:28.829Z,0
2016-11-29T01:48:42.505Z,0
2016-11-29T01:49:55.476Z,0
2016-11-29T01:51:08.987Z,0
2016-11-29T01:52:22.507Z,0
2016-11-29T01:53:36.034Z,0
2016-11-29T01:54:49.341Z,0
2016-11-29T01:56:02.922Z,0
2016-11-29T01:57:15.886Z,0
2016-11-29T01:58:29.406Z,0
2016-11-29T01:59:42.421Z,0
2016-11-29T02:00:55.919Z,0
2016-11-29T02:02:09.473Z,0
2016-11-29T02:03:22.987Z,0
2016-11-29T02:04:36.232Z,0
2016-11-29T02:05:49.477Z,0
2016-11-29T02:07:02.969Z,0
2016-11-29T02:08:16.047Z,0
2016-11-29T02:09:29.078Z,0
2016-11-29T02:10:42.605Z,0
2016-11-29T02:11:55.729Z,0
2016-11-29T02:13:09.260Z,0
2016-11-29T02:14:22.819Z,0
2016-11-29T02:15:36.345Z,0
2016-11-29T02:17:20.987Z,0
2016-11-29T02:18:34.494Z,0
2016-11-29T02:19:47.501Z,0
2016-11-29T02:21:01.024Z,0
2016-11-29T02:22:14.564Z,0
2016-11-29T02:23:28.192Z,0
2016-11-29T02:24:41.194Z,0
2016-11-29T02:25:54.758Z,0
2016-11-29T02:27:08.333Z,0
2016-11-29T02:28:21.962Z,0
2016-11-29T02:29:35.495Z,0
2016-11-29T02:30:48.716Z,0
2016-11-29T02:32:02.380Z,0
2016-11-29T02:33:15.846Z,0
2016-11-29T02:34:29.435Z,0
2016-11-29T02:35:42.987Z,0
2016-11-29T02:36:55.962Z,0
2016-11-29T02:38:09.544Z,0
2016-11-29T02:39:23.114Z,0
2016-11-29T02:40:36.149Z,0
2016-11-29T02:41:49.694Z,0
2016-11-29T02:43:03.198Z,0
2016-11-29T02:44:16.726Z,0
2016-11-29T02:45:29.961Z,0
2016-11-29T02:46:43.190Z,0
2016-11-29T02:47:57.015Z,0
2016-11-29T02:49:10.553Z,0
2016-11-29T02:50:23.588Z,0
2016-11-29T02:51:37.154Z,0
2016-11-29T02:52:50.789Z,0
2016-11-29T02:54:03.537Z,0
2016-11-29T02:55:16.504Z,0
2016-11-29T02:56:29.000Z,0
2016-11-29T02:57:42.090Z,0
2016-11-29T02:58:55.692Z,0
2016-11-29T03:00:08.214Z,0
2016-11-29T03:01:21.166Z,0
2016-11-29T03:04:19.742Z,0
2016-11-29T03:05:33.240Z,0
2016-11-29T03:06:46.711Z,0
2016-11-29T03:08:00.577Z,0
2016-11-29T03:09:13.850Z,0
2016-11-29T03:10:26.768Z,0
2016-11-29T03:11:39.741Z,0
2016-11-29T03:12:53.193Z,0
2016-11-29T03:14:06.507Z,0
2016-11-29T03:15:20.047Z,0
2016-11-29T03:16:33.054Z,0
2016-11-29T03:17:46.628Z,0
2016-11-29T03:19:31.305Z,0
2016-11-29T03:20:44.733Z,0
2016-11-29T03:21:58.247Z,0
2016-11-29T03:23:11.797Z,0
2016-11-29T03:24:25.020Z,0
2016-11-29T03:25:38.143Z,0
2016-11-29T03:26:51.353Z,0
2016-11-29T03:28:05.086Z,0
2016-11-29T03:29:18.901Z,0
2016-11-29T03:30:31.397Z,0
2016-11-29T03:31:44.427Z,0
2016-11-29T03:32:57.967Z,0
2016-11-29T03:34:10.968Z,0
2016-11-29T03:35:24.542Z,0
2016-11-29T03:36:37.518Z,0
2016-11-29T03:37:50.832Z,0
2016-11-29T03:39:04.352Z,0
2016-11-29T03:40:17.352Z,0
2016-11-29T03:41:30.350Z,0
2016-11-29T03:42:43.860Z,0
2016-11-29T03:43:57.362Z,0
2016-11-29T03:45:10.341Z,0
2016-11-29T03:46:54.457Z,0
2016-11-29T03:48:07.050Z,0
2016-11-29T03:49:20.135Z,0
2016-11-29T03:50:33.654Z,0
2016-11-29T03:51:46.662Z,0
2016-11-29T03:53:00.154Z,0
2016-11-29T03:54:13.733Z,0
2016-11-29T03:55:26.724Z,0
2016-11-29T03:56:39.694Z,0
2016-11-29T03:57:53.206Z,0
2016-11-29T03:59:06.706Z,0
2016-11-29T04:00:20.328Z,0
2016-11-29T04:01:33.790Z,0
2016-11-29T04:02:46.853Z,0
2016-11-29T04:04:00.350Z,0
2016-11-29T04:05:13.866Z,0
2016-11-29T04:06:27.348Z,0
2016-11-29T04:07:40.743Z,0
2016-11-29T04:08:54.215Z,0
2016-11-29T04:10:07.249Z,0
2016-11-29T04:11:20.813Z,0
2016-11-29T04:13:05.536Z,0
2016-11-29T04:14:19.160Z,0
2016-11-29T04:15:32.781Z,0
2016-11-29T04:16:46.423Z,0
2016-11-29T04:18:00.013Z,0
2016-11-29T04:19:13.101Z,0
2016-11-29T04:20:26.596Z,0
2016-11-29T04:21:39.926Z,0
2016-11-29T04:22:52.939Z,0
2016-11-29T04:24:06.044Z,0
2016-11-29T04:25:18.648Z,0
2016-11-29T04:26:32.270Z,0
2016-11-29T04:27:45.870Z,0
2016-11-29T04:30:44.400Z,0
2016-11-29T04:31:57.963Z,0
2016-11-29T04:33:11.029Z,0
2016-11-29T04:34:24.162Z,0
2016-11-29T04:35:37.772Z,0
2016-11-29T04:36:51.379Z,0
2016-11-29T04:38:04.562Z,0
2016-11-29T04:39:17.860Z,0
2016-11-29T04:40:30.878Z,0
2016-11-29T04:41:44.493Z,0
2016-11-29T04:42:57.517Z,0
2016-11-29T04:44:11.332Z,0
2016-11-29T04:45:24.958Z,0
2016-11-29T04:46:38.049Z,0
2016-11-29T04:47:51.715Z,0
2016-11-29T04:49:05.118Z,0
2016-11-29T04:50:18.742Z,0
2016-11-29T04:51:31.981Z,0
2016-11-29T04:52:45.650Z,0
2016-11-29T04:53:59.241Z,0
2016-11-29T04:55:12.780Z,0
2016-11-29T04:56:26.104Z,0
2016-11-29T04:57:39.736Z,0
2016-11-29T04:58:53.316Z,0
2016-11-29T05:00:06.939Z,0
2016-11-29T05:01:20.556Z,0
2016-11-29T05:02:33.605Z,0
2016-11-29T05:03:46.182Z,0
2016-11-29T05:04:58.734Z,0
2016-11-29T05:06:11.726Z,0
2016-11-29T05:07:25.284Z,0
2016-11-29T05:08:38.809Z,0
2016-11-29T05:09:50.809Z,0
2016-11-29T05:11:03.840Z,0
2016-11-29T05:12:16.361Z,0
2016-11-29T05:13:29.527Z,0
2016-11-29T05:15:13.686Z,0
2016-11-29T05:16:27.335Z,0
2016-11-29T05:17:40.423Z,0
2016-11-29T05:18:54.057Z,0
2016-11-29T05:20:07.709Z,0
2016-11-29T05:21:21.326Z,0
2016-11-29T05:22:34.442Z,0
2016-11-29T05:23:47.548Z,0
2016-11-29T05:25:00.087Z,0
2016-11-29T05:26:13.638Z,0
2016-11-29T05:27:27.256Z,0
2016-11-29T05:28:40.299Z,0
2016-11-29T05:29:53.909Z,0
2016-11-29T05:31:07.456Z,0
2016-11-29T05:32:21.059Z,0
2016-11-29T05:33:34.430Z,0
2016-11-29T05:34:47.500Z,0
2016-11-29T05:36:00.828Z,0
2016-11-29T05:37:14.471Z,0
2016-11-29T05:38:28.081Z,0
2016-11-29T05:39:40.856Z,0
2016-11-29T05:40:54.208Z,0
2016-11-29T05:42:08.235Z,0
2016-11-29T05:43:21.104Z,0
2016-11-29T05:44:35.149Z,0
2016-11-29T05:45:48.765Z,0
2016-11-29T05:47:01.554Z,0
2016-11-29T05:48:15.183Z,0
2016-11-29T05:49:28.833Z,0
2016-11-29T05:50:42.567Z,0
2016-11-29T05:51:55.590Z,0
2016-11-29T05:53:09.173Z,0
2016-11-29T05:54:22.247Z,0
2016-11-29T05:55:35.882Z,0
2016-11-29T05:56:49.466Z,0
2016-11-29T05:58:03.064Z,0
2016-11-29T05:59:16.194Z,0
2016-11-29T06:00:29.796Z,0
2016-11-29T06:01:42.898Z,0
2016-11-29T06:02:56.557Z,0
2016-11-29T06:04:10.216Z,0
2016-11-29T06:05:23.820Z,0
2016-11-29T06:06:37.190Z,0
2016-11-29T06:07:50.800Z,0
2016-11-29T06:09:03.871Z,0
2016-11-29T06:10:17.448Z,0
2016-11-29T06:11:31.073Z,0
2016-11-29T06:12:44.671Z,0
2016-11-29T06:13:57.756Z,0
2016-11-29T06:15:11.389Z,0
2016-11-29T06:16:25.017Z,0
2016-11-29T06:17:38.629Z,0
2016-11-29T06:18:52.168Z,0
2016-11-29T06:20:05.827Z,0
2016-11-29T06:21:19.399Z,0
2016-11-29T06:22:32.536Z,0
2016-11-29T06:23:45.161Z,0
2016-11-29T06:24:58.181Z,0
2016-11-29T06:26:11.287Z,0
2016-11-29T06:27:24.406Z,0
2016-11-29T06:28:38.288Z,0
2016-11-29T06:29:50.809Z,0
2016-11-29T06:31:03.887Z,0
2016-11-29T06:32:16.413Z,0
2016-11-29T06:33:30.022Z,0
2016-11-29T06:34:43.640Z,0
2016-11-29T06:35:57.275Z,0
2016-11-29T06:37:10.331Z,0
2016-11-29T06:38:23.414Z,0
2016-11-29T06:39:35.954Z,0
2016-11-29T06:40:48.963Z,0
2016-11-29T06:42:02.319Z,0
2016-11-29T06:43:15.949Z,0
2016-11-29T06:44:29.527Z,0
2016-11-29T06:45:43.147Z,0
2016-11-29T06:46:56.247Z,0
2016-11-29T06:48:09.886Z,0
2016-11-29T06:49:23.515Z,0
2016-11-29T06:50:36.531Z,0
2016-11-29T06:52:20.707Z,0
2016-11-29T06:53:34.297Z,0
2016-11-29T06:54:47.631Z,0
2016-11-29T06:56:00.768Z,0
2016-11-29T06:57:14.500Z,0
2016-11-29T06:58:27.729Z,0
2016-11-29T06:59:41.444Z,0
2016-11-29T07:00:55.108Z,0
2016-11-29T07:02:07.808Z,0
2016-11-29T07:03:21.194Z,0
2016-11-29T07:04:34.776Z,0
2016-11-29T07:05:48.348Z,0
2016-11-29T07:07:01.406Z,0
2016-11-29T07:08:14.988Z,0
2016-11-29T07:09:28.658Z,0
2016-11-29T07:10:42.238Z,0
2016-11-29T07:11:55.319Z,0
2016-11-29T07:13:08.896Z,0
2016-11-29T07:14:52.475Z,0
2016-11-29T07:16:06.074Z,0
2016-11-29T07:17:19.693Z,0
2016-11-29T07:18:33.285Z,0
2016-11-29T07:19:46.894Z,0
2016-11-29T07:21:00.515Z,0
2016-11-29T07:22:14.046Z,0
2016-11-29T07:23:58.743Z,0
2016-11-29T07:25:12.587Z,0
2016-11-29T07:26:26.204Z,0
2016-11-29T07:27:39.828Z,0
2016-11-29T07:28:52.897Z,0
2016-11-29T07:30:05.936Z,0
2016-11-29T07:31:19.500Z,0
2016-11-29T07:32:32.594Z,0
2016-11-29T07:33:46.290Z,0
2016-11-29T07:34:59.338Z,0
2016-11-29T07:36:12.988Z,0
2016-11-29T07:37:24.943Z,0
2016-11-29T07:38:38.514Z,0
2016-11-29T07:39:51.667Z,0
2016-11-29T07:41:05.307Z,0
2016-11-29T07:42:18.829Z,0
2016-11-29T07:43:32.080Z,0
2016-11-29T07:44:45.181Z,0
2016-11-29T07:45:58.204Z,0
2016-11-29T07:47:11.860Z,0
2016-11-29T07:48:56.342Z,0
2016-11-29T07:50:09.962Z,0
2016-11-29T07:51:37.403Z,0
2016-11-29T07:52:50.983Z,0
2016-11-29T07:54:03.763Z,0
2016-11-29T07:55:17.258Z,0
2016-11-29T07:56:30.589Z,0
2016-11-29T07:57:44.055Z,0
2016-11-29T07:58:57.670Z,0
2016-11-29T08:00:11.445Z,0
2016-11-29T08:01:25.014Z,0
2016-11-29T08:02:38.321Z,0
2016-11-29T08:03:51.921Z,4
2016-11-29T08:05:05.483Z,0
2016-11-29T08:06:18.541Z,0
2016-11-29T08:07:31.675Z,4
2016-11-29T08:08:45.273Z,4
2016-11-29T08:09:58.857Z,4
2016-11-29T08:11:11.970Z,4
2016-11-29T08:12:25.671Z,8
2016-11-29T08:13:38.797Z,8
2016-11-29T08:14:52.439Z,8
2016-11-29T08:16:06.013Z,12
2016-11-29T08:17:19.591Z,16
2016-11-29T08:18:32.912Z,16
2016-11-29T08:19:46.540Z,20
2016-11-29T08:20:59.609Z,24
2016-11-29T08:22:13.281Z,32
2016-11-29T08:23:26.954Z,36
2016-11-29T08:24:40.540Z,44
2016-11-29T08:25:54.112Z,48
2016-11-29T08:27:07.696Z,52
2016-11-29T08:28:21.334Z,60
2016-11-29T08:29:34.682Z,72
2016-11-29T08:30:48.268Z,80
2016-11-29T08:32:01.826Z,92
2016-11-29T08:33:15.127Z,100
2016-11-29T08:34:28.779Z,108
2016-11-29T08:35:42.654Z,112
2016-11-29T08:36:56.304Z,124
2016-11-29T08:38:09.858Z,124
2016-11-29T08:39:23.486Z,136
2016-11-29T08:40:37.086Z,132
2016-11-29T08:41:50.105Z,116
2016-11-29T08:43:03.181Z,136
2016-11-29T08:44:16.538Z,152
2016-11-29T08:45:29.602Z,136
2016-11-29T08:46:42.930Z,116
2016-11-29T08:47:55.998Z,136
2016-11-29T08:49:09.549Z,144
2016-11-29T08:50:23.087Z,136
2016-11-29T08:51:36.155Z,120
2016-11-29T08:52:49.751Z,140
2016-11-29T08:54:03.073Z,120
2016-11-29T08:55:16.603Z,132
2016-11-29T08:56:29.643Z,160
2016-11-29T08:57:42.704Z,176
2016-11-29T08:58:55.738Z,172
2016-11-29T09:00:09.313Z,160
2016-11-29T09:01:22.952Z,156
2016-11-29T09:02:36.038Z,168
2016-11-29T09:03:49.675Z,160
2016-11-29T09:05:02.775Z,180
2016-11-29T09:06:15.767Z,276
2016-11-29T09:07:28.239Z,332
2016-11-29T09:08:41.380Z,348
2016-11-29T09:10:25.843Z,292
2016-11-29T09:11:38.973Z,296
2016-11-29T09:12:52.591Z,236
2016-11-29T09:14:05.643Z,244
2016-11-29T09:15:18.749Z,220
2016-11-29T09:16:32.349Z,236
2016-11-29T09:17:45.904Z,240
2016-11-29T09:18:59.479Z,292
2016-11-29T09:20:13.111Z,252
2016-11-29T09:21:26.160Z,232
2016-11-29T09:22:38.674Z,208
2016-11-29T09:23:52.178Z,212
2016-11-29T09:25:05.282Z,200
2016-11-29T09:26:18.384Z,216
2016-11-29T09:27:32.102Z,212
2016-11-29T09:28:45.729Z,196
2016-11-29T09:29:59.282Z,204
2016-11-29T09:31:43.175Z,232
2016-11-29T09:32:56.526Z,248
2016-11-29T09:34:09.628Z,224
2016-11-29T09:35:22.715Z,204
2016-11-29T09:36:36.335Z,176
2016-11-29T09:37:49.954Z,184
2016-11-29T09:39:03.146Z,200
2016-11-29T09:40:16.262Z,184
2016-11-29T09:41:29.825Z,168
2016-11-29T09:42:43.433Z,160
2016-11-29T09:44:28.047Z,172
2016-11-29T09:45:41.097Z,160
2016-11-29T09:46:54.716Z,172
2016-11-29T09:48:08.342Z,188
2016-11-29T09:49:21.914Z,204
2016-11-29T09:50:35.223Z,192
2016-11-29T09:51:48.297Z,188
2016-11-29T09:53:02.115Z,180
2016-11-29T09:54:15.271Z,192
2016-11-29T09:55:28.320Z,188
2016-11-29T09:56:41.468Z,172
2016-11-29T09:57:55.081Z,168
2016-11-29T09:59:08.341Z,148
2016-11-29T10:00:21.989Z,148
2016-11-29T10:01:35.337Z,156
2016-11-29T10:02:48.905Z,184
2016-11-29T10:04:02.523Z,204
2016-11-29T10:05:16.163Z,228
2016-11-29T10:06:28.970Z,240
2016-11-29T10:07:42.565Z,236
2016-11-29T10:08:56.110Z,264
2016-11-29T10:10:09.111Z,276
2016-11-29T10:11:22.741Z,304
2016-11-29T10:12:36.336Z,312
2016-11-29T10:13:49.911Z,308
2016-11-29T10:15:03.310Z,296
2016-11-29T10:16:16.406Z,332
2016-11-29T10:17:28.944Z,364
2016-11-29T10:18:42.563Z,384
2016-11-29T10:19:56.123Z,364
2016-11-29T10:21:09.776Z,360
2016-11-29T10:22:22.367Z,392
2016-11-29T10:23:35.965Z,416
2016-11-29T10:24:49.639Z,428
2016-11-29T10:26:03.270Z,432
2016-11-29T10:27:15.589Z,504
2016-11-29T10:28:29.242Z,576
2016-11-29T10:29:42.364Z,576
2016-11-29T10:30:55.191Z,592
2016-11-29T10:32:08.261Z,580
2016-11-29T10:33:21.837Z,588
2016-11-29T10:34:35.438Z,588
2016-11-29T10:35:48.802Z,660
2016-11-29T10:37:02.412Z,600
2016-11-29T10:38:15.490Z,596
2016-11-29T10:39:29.075Z,592
2016-11-29T10:40:41.636Z,532
2016-11-29T10:41:54.763Z,504
2016-11-29T10:43:08.412Z,524
2016-11-29T10:44:21.489Z,540
2016-11-29T10:45:35.215Z,496
2016-11-29T10:46:48.818Z,500
2016-11-29T10:48:02.192Z,556
2016-11-29T10:49:15.863Z,612
2016-11-29T10:50:28.944Z,660
2016-11-29T10:51:42.640Z,680
2016-11-29T10:52:55.930Z,692
2016-11-29T10:54:09.527Z,732
2016-11-29T10:55:22.691Z,740
2016-11-29T10:56:36.307Z,700
2016-11-29T10:57:49.359Z,684
2016-11-29T10:59:02.969Z,720
2016-11-29T11:00:16.594Z,684
2016-11-29T11:01:30.140Z,652
2016-11-29T11:02:43.216Z,620
2016-11-29T11:03:56.844Z,592
2016-11-29T11:05:09.915Z,564
2016-11-29T11:06:23.506Z,524
2016-11-29T11:07:37.088Z,488
2016-11-29T11:08:50.757Z,504
2016-11-29T11:10:04.391Z,520
2016-11-29T11:11:18.039Z,536
2016-11-29T11:12:30.623Z,608
2016-11-29T11:13:44.504Z,760
2016-11-29T11:14:57.564Z,808
2016-11-29T11:16:11.373Z,848
2016-11-29T11:17:24.488Z,904
2016-11-29T11:18:38.342Z,828
2016-11-29T11:19:51.443Z,744
2016-11-29T11:21:05.307Z,708
2016-11-29T11:22:18.363Z,768
2016-11-29T11:23:32.152Z,760
2016-11-29T11:24:44.651Z,756
2016-11-29T11:25:57.670Z,776
2016-11-29T11:27:10.698Z,784
2016-11-29T11:28:24.309Z,836
2016-11-29T11:29:37.433Z,832
2016-11-29T11:30:50.748Z,904
2016-11-29T11:32:04.321Z,860
2016-11-29T11:33:18.757Z,984
2016-11-29T11:34:31.815Z,1016
2016-11-29T11:35:44.906Z,896
2016-11-29T11:36:57.930Z,1004
2016-11-29T11:38:11.553Z,892
2016-11-29T11:39:25.117Z,968
2016-11-29T11:40:38.481Z,916
2016-11-29T11:41:51.542Z,804
2016-11-29T11:43:04.546Z,792
2016-11-29T11:44:17.567Z,760
2016-11-29T11:45:31.163Z,776
2016-11-29T11:46:44.725Z,856
2016-11-29T11:47:58.295Z,876
2016-11-29T11:49:11.876Z,984
2016-11-29T11:50:25.508Z,1036
2016-11-29T11:51:39.119Z,1064
2016-11-29T11:52:52.715Z,824
2016-11-29T11:54:06.402Z,796
2016-11-29T11:55:20.122Z,936
2016-11-29T11:56:33.226Z,912
2016-11-29T11:57:46.825Z,868
2016-11-29T11:59:00.444Z,832
2016-11-29T12:00:13.529Z,836
2016-11-29T12:01:27.078Z,848
2016-11-29T12:02:39.573Z,956
2016-11-29T12:03:52.145Z,1188
2016-11-29T12:05:05.290Z,1172
2016-11-29T12:06:18.901Z,1144
2016-11-29T12:08:03.058Z,1008
2016-11-29T12:09:16.116Z,908
2016-11-29T12:10:29.753Z,856
2016-11-29T12:11:43.340Z,872
2016-11-29T12:12:56.912Z,868
2016-11-29T12:14:10.526Z,932
2016-11-29T12:15:23.889Z,1032
2016-11-29T12:18:22.201Z,888
2016-11-29T12:19:35.745Z,784
2016-11-29T12:22:33.537Z,984
2016-11-29T12:23:47.109Z,1252
2016-11-29T12:24:59.646Z,1260
2016-11-29T12:26:12.707Z,1204
2016-11-29T12:27:25.734Z,1340
2016-11-29T12:28:39.341Z,1444
2016-11-29T12:30:24.047Z,1756
2016-11-29T12:31:37.658Z,2176
2016-11-29T12:32:51.216Z,2312
2016-11-29T12:34:04.592Z,2216
2016-11-29T12:35:17.720Z,2100
2016-11-29T12:36:31.299Z,1988
2016-11-29T12:38:15.750Z,1564
2016-11-29T12:39:29.290Z,1376
2016-11-29T12:40:42.373Z,1240
2016-11-29T12:41:56.028Z,1352
2016-11-29T12:43:09.634Z,1512
2016-11-29T12:44:22.247Z,1564
2016-11-29T12:45:35.927Z,1792
2016-11-29T12:46:48.445Z,1948
2016-11-29T12:48:00.986Z,1716
2016-11-29T12:49:13.540Z,1596
2016-11-29T12:50:27.181Z,1676
2016-11-29T12:51:40.287Z,1728
2016-11-29T12:52:53.556Z,1672
2016-11-29T12:54:05.869Z,1708
2016-11-29T12:55:19.491Z,1556
2016-11-29T12:56:32.281Z,1440
2016-11-29T12:57:45.400Z,1524
2016-11-29T12:58:58.519Z,1804
2016-11-29T13:00:12.227Z,1756
2016-11-29T13:01:25.850Z,1648
2016-11-29T13:02:38.964Z,1436
2016-11-29T13:03:52.640Z,1240
2016-11-29T13:05:06.241Z,1072
2016-11-29T13:06:19.792Z,960
2016-11-29T13:07:33.335Z,912
2016-11-29T13:08:46.422Z,860
2016-11-29T13:09:58.944Z,836
2016-11-29T13:11:12.807Z,868
2016-11-29T13:12:26.435Z,924
2016-11-29T13:13:40.073Z,1004
2016-11-29T13:14:53.198Z,976
2016-11-29T13:16:06.360Z,944
2016-11-29T13:17:19.438Z,924
2016-11-29T13:18:32.552Z,1016
2016-11-29T13:19:46.125Z,1104
2016-11-29T13:20:59.734Z,996
2016-11-29T13:22:13.321Z,884
2016-11-29T13:23:26.384Z,836
2016-11-29T13:24:39.409Z,808
2016-11-29T13:25:52.981Z,796
2016-11-29T13:27:05.601Z,836
2016-11-29T13:28:19.229Z,980
2016-11-29T13:29:32.793Z,1016
2016-11-29T13:30:45.344Z,1004
2016-11-29T13:31:58.934Z,1004
2016-11-29T13:33:12.900Z,996
2016-11-29T13:34:25.853Z,952
2016-11-29T13:35:39.184Z,944
2016-11-29T13:36:52.803Z,1024
2016-11-29T13:38:06.555Z,1044
2016-11-29T13:39:20.128Z,1064
2016-11-29T13:40:33.202Z,1088
2016-11-29T13:41:46.871Z,1136
2016-11-29T13:42:59.980Z,1180
2016-11-29T13:44:12.803Z,1248
2016-11-29T13:45:26.447Z,1308
2016-11-29T13:46:40.035Z,1416
2016-11-29T13:47:53.619Z,1512
2016-11-29T13:49:06.754Z,1596
2016-11-29T13:50:20.377Z,1692
2016-11-29T13:51:34.056Z,1816
2016-11-29T13:52:47.636Z,1936
2016-11-29T13:54:01.277Z,2060
2016-11-29T13:55:14.881Z,2292
2016-11-29T13:56:28.529Z,2492
2016-11-29T13:58:12.675Z,2768
2016-11-29T13:59:26.199Z,2912
2016-11-29T14:00:39.781Z,3156
2016-11-29T14:01:52.905Z,3388
2016-11-29T14:03:06.534Z,3480
2016-11-29T14:04:20.180Z,3380
2016-11-29T14:05:33.807Z,3296
2016-11-29T14:06:47.433Z,3032
2016-11-29T14:08:00.003Z,2828
2016-11-29T14:09:13.623Z,2648
2016-11-29T14:10:27.216Z,2612
2016-11-29T14:11:40.836Z,2660
2016-11-29T14:12:54.432Z,2776
2016-11-29T14:14:07.481Z,3004
2016-11-29T14:15:20.522Z,3324
2016-11-29T14:16:34.157Z,3508
2016-11-29T14:17:47.267Z,3340
2016-11-29T14:19:00.441Z,2876
2016-11-29T14:20:14.099Z,2792
2016-11-29T14:21:27.750Z,2916
2016-11-29T14:22:41.575Z,3148
2016-11-29T14:23:55.185Z,3512
2016-11-29T14:25:08.527Z,4180
2016-11-29T14:26:22.162Z,5064
2016-11-29T14:27:35.839Z,6776
2016-11-29T14:28:49.509Z,5656
2016-11-29T14:30:03.153Z,5728
2016-11-29T14:31:16.542Z,6048
2016-11-29T14:32:29.623Z,5576
2016-11-29T14:33:43.509Z,4688
2016-11-29T14:34:56.064Z,4088
2016-11-29T14:36:09.660Z,5324
2016-11-29T14:37:22.723Z,5880
2016-11-29T14:38:36.303Z,6096
2016-11-29T14:39:49.944Z,4636
2016-11-29T14:41:03.066Z,3872
2016-11-29T14:42:15.586Z,4932
2016-11-29T14:43:29.185Z,4760
2016-11-29T14:44:42.853Z,4168
2016-11-29T14:45:55.989Z,4764
2016-11-29T14:47:09.629Z,4444
2016-11-29T14:48:22.996Z,4056
2016-11-29T14:49:36.612Z,4300
2016-11-29T14:50:51.073Z,3376
2016-11-29T14:52:04.239Z,2800
2016-11-29T14:53:17.314Z,2456
2016-11-29T14:54:30.992Z,2280
2016-11-29T14:55:43.065Z,2220
2016-11-29T14:56:56.701Z,2088
2016-11-29T14:58:10.356Z,2132
2016-11-29T14:59:23.965Z,2628
2016-11-29T15:00:37.597Z,2920
2016-11-29T15:01:51.301Z,2316
2016-11-29T15:03:04.879Z,2008
2016-11-29T15:04:18.177Z,3068
2016-11-29T15:05:31.229Z,3320
2016-11-29T15:06:44.305Z,2916
2016-11-29T15:07:57.663Z,2524
2016-11-29T15:09:11.589Z,2364
2016-11-29T15:10:24.689Z,3636
2016-11-29T15:11:37.743Z,5716
2016-11-29T15:12:51.293Z,9632
2016-11-29T15:14:04.846Z,3760
2016-11-29T15:15:18.505Z,3692
2016-11-29T15:16:32.283Z,3480
2016-11-29T15:18:16.991Z,2888
2016-11-29T15:19:30.557Z,2236
2016-11-29T15:20:44.146Z,1688
2016-11-29T15:21:57.190Z,1300
2016-11-29T15:23:10.340Z,1056
2016-11-29T15:24:23.427Z,1032
2016-11-29T15:25:36.803Z,1232
2016-11-29T15:26:50.393Z,1248
2016-11-29T15:28:04.014Z,1240
2016-11-29T15:29:17.630Z,1340
2016-11-29T15:30:30.187Z,1748
2016-11-29T15:31:43.222Z,2384
2016-11-29T15:32:56.821Z,3124
2016-11-29T15:34:10.239Z,3088
2016-11-29T15:35:23.346Z,2156
2016-11-29T15:36:36.979Z,1700
2016-11-29T15:37:50.112Z,1420
2016-11-29T15:39:03.754Z,1440
2016-11-29T15:40:16.851Z,1640
2016-11-29T15:41:29.996Z,1804
2016-11-29T15:42:43.617Z,1800
2016-11-29T15:43:57.331Z,1376
2016-11-29T15:45:09.854Z,1336
2016-11-29T15:46:23.417Z,1336
2016-11-29T15:47:37.028Z,1516
2016-11-29T15:48:50.681Z,1536
2016-11-29T15:50:04.344Z,1256
2016-11-29T15:51:17.991Z,1564
2016-11-29T15:52:31.073Z,2080
2016-11-29T15:53:44.728Z,1460
2016-11-29T15:54:58.317Z,1088
2016-11-29T15:56:11.887Z,964
2016-11-29T15:57:25.444Z,1196
2016-11-29T15:58:38.099Z,1928
2016-11-29T15:59:51.722Z,2080
2016-11-29T16:01:04.259Z,2024
2016-11-29T16:02:17.308Z,2428
2016-11-29T16:03:30.989Z,2748
2016-11-29T16:04:44.763Z,2268
2016-11-29T16:05:57.852Z,1844
2016-11-29T16:07:11.630Z,1832
2016-11-29T16:08:24.663Z,1528
2016-11-29T16:09:38.479Z,1228
2016-11-29T16:10:52.108Z,1140
2016-11-29T16:12:05.376Z,1304
2016-11-29T16:13:19.091Z,1760
2016-11-29T16:14:32.416Z,2452
2016-11-29T16:15:44.999Z,4960
2016-11-29T16:16:58.642Z,5716
2016-11-29T16:18:12.303Z,4268
2016-11-29T16:19:25.388Z,9620
2016-11-29T16:20:38.930Z,7272
2016-11-29T16:21:52.283Z,11368
2016-11-29T16:23:05.510Z,12980
2016-11-29T16:24:18.844Z,10552
2016-11-29T16:25:32.529Z,12600
2016-11-29T16:26:46.113Z,4592
2016-11-29T16:27:59.134Z,2256
2016-11-29T16:29:12.887Z,2104
2016-11-29T16:30:25.934Z,2308
2016-11-29T16:31:38.988Z,5164
2016-11-29T16:32:52.549Z,3376
2016-11-29T16:34:06.234Z,2816
2016-11-29T16:35:19.356Z,3064
2016-11-29T16:36:32.974Z,3784
2016-11-29T16:37:46.637Z,4552
2016-11-29T16:38:59.718Z,10604
2016-11-29T16:40:44.109Z,6776
2016-11-29T16:41:56.312Z,5864
2016-11-29T16:43:09.934Z,1844
2016-11-29T16:44:23.527Z,1264
2016-11-29T16:45:36.626Z,1412
2016-11-29T16:46:50.249Z,1468
2016-11-29T16:48:03.374Z,1836
2016-11-29T16:49:17.026Z,2016
2016-11-29T16:50:29.895Z,1988
2016-11-29T16:51:43.477Z,1540
2016-11-29T16:52:57.123Z,1408
2016-11-29T16:54:10.776Z,976
2016-11-29T16:55:24.392Z,780
2016-11-29T16:56:37.460Z,724
2016-11-29T16:57:51.099Z,788
2016-11-29T16:59:04.749Z,868
2016-11-29T17:00:18.395Z,1008
2016-11-29T17:01:32.023Z,884
2016-11-29T17:02:45.640Z,820
2016-11-29T17:03:59.230Z,676
2016-11-29T17:05:12.911Z,612
2016-11-29T17:06:26.452Z,688
2016-11-29T17:07:40.061Z,668
2016-11-29T17:08:53.728Z,632
2016-11-29T17:10:07.331Z,660
2016-11-29T17:11:20.381Z,680
2016-11-29T17:12:33.975Z,664
2016-11-29T17:13:47.599Z,620
2016-11-29T17:15:01.772Z,608
2016-11-29T17:16:15.419Z,540
2016-11-29T17:17:29.046Z,440
2016-11-29T17:18:42.618Z,392
2016-11-29T17:19:56.236Z,384
2016-11-29T17:21:09.798Z,380
2016-11-29T17:22:23.419Z,360
2016-11-29T17:23:37.037Z,352
2016-11-29T17:24:50.088Z,324
2016-11-29T17:26:03.162Z,320
2016-11-29T17:27:16.727Z,404
2016-11-29T17:28:30.311Z,560
2016-11-29T17:29:42.893Z,608
2016-11-29T17:30:55.987Z,496
2016-11-29T17:32:09.048Z,456
2016-11-29T17:33:22.342Z,488